Capitol Logistics 1129


EBLG
Liège Airport
Liege, BE
EGNX
East Midlands Airport
Derby, GB

Activity Log

Date Flight Route Aircraft Duration
04/12/2020 CPX1129 BUB7R BUB L608 DENUT L610 HEMEL T420 WELIN PIGO1J B738 1h 07m
01/18/2020 CPX1129 BUB7S BUB L608 DENUT L610 HEMEL T420 WELIN PIGO1J B738 1h 05m
10/22/2019 CPX729 Not Available B738 1h 05m
10/18/2019 CPX729 N0447F320 BUB7S BUB UL608 DENUT UL610 RAPIX L610 KOPUL/N0413F240 L610 HEMEL T420 WELIN PIGO1J B738 1h 08m
10/04/2019 CPX729 N0434F240 HELEN HELE1A B738 0h 46m

Route Details

Aircraft Information
Primary: Boeing 737-800BCF
Backup: Not Available
Route Data
Distance: 283nm
Sched. Duration: 1h 00m
Avg. Duration: 0h 94m (-6m)
Times Flown: 5
Recm'd Route: Not Available
Planned Altitude: 34,000ft
Origin Wx: EBLG 060850Z 23016KT 9999 FEW019 SCT045 12/07 Q1000 NOSIG
Dest. Wx: EGNX 060850Z 23021KT 9000 -RA BKN016 10/06 Q0993
Notes:

Financial History
Total Freight: 174,240lbs
Average Load: 34,848lbs/flt
Fuel Used: 26,358lbs
Avg. Fuel Used: 5,272lbs/flt
Fuel Expense: $29,257
Avg. Fuel Expense: $5,851
Avg. Fuel Cost: $1.11/lbs
Total Gross Income: $364,426
Pilot Pay: $1,015
Total Expenses: $39,618
Total Revenue: $294,502
Average Revenue: $72,885.12